Pacific Journey — 3FFE — position and weather

sailwx.info

Track history (hours):
 
Tides and Currents Weather Stations Pressure Air Temp Water Temp Dewpoint Dewpoint Depression Visibility Wind Speed Wind Dir Waves Ship Positions

Pacific Journey

Last reported at 2014-Nov-04 21:34 UTC. Time now 2014-Nov-27 04:28 UTC.
Position N 35°58' W 005°31'.
Warning: this ship's position is 22 days out of date.

Length 180 m; draft 6.2 m.

Type: Cargo ship. MMSI: 371467000.

Date/timePositionNaut miles runAvg speedWind from/ knotsBaromVisibWave heightAir tempDewpointWater temp
2014-Nov-04 21:34N 35°58' W 005°31'1110.6
2014-Nov-04 20:34N 36°01' W 005°19'36911.7
2014-Nov-03 13:06N 36°59' E 002°15'712.8
2014-Nov-03 12:32N 37°00' E 002°24'1612.6
2014-Nov-03 11:15N 37°02' E 002°44'1112.7
2014-Nov-03 10:24N 37°04' E 002°58'1112.8
2014-Nov-03 09:31N 37°05' E 003°12'1412.8
2014-Nov-03 08:28N 37°08' E 003°29'1512.3
2014-Nov-03 07:16N 37°10' E 003°47'47512.9
2014-Nov-01 18:18N 36°39' E 013°40'1213.3
2014-Nov-01 17:25N 36°36' E 013°54'1113.2
2014-Nov-01 16:33N 36°32' E 014°07'1413.8
2014-Nov-01 15:33N 36°28' E 014°23'  
Track history (hours):
 
Tides and Currents Weather Stations Pressure Air Temp Water Temp Dewpoint Dewpoint Depression Visibility Wind Speed Wind Dir Waves Ship Positions

Pacific Journey

Last reported at 2014-Nov-04 21:34 UTC. Time now 2014-Nov-27 04:28 UTC.
Position N 35°58' W 005°31'.
Warning: this ship's position is 22 days out of date.

Length 180 m; draft 6.2 m.

Type: Cargo ship. MMSI: 371467000.

Date/timePositionNaut miles runAvg speedWind from/ knotsBaromVisibWave heightAir tempDewpointWater temp
2014-Nov-04 21:34N 35°58' W 005°31'1110.6
2014-Nov-04 20:34N 36°01' W 005°19'36911.7
2014-Nov-03 13:06N 36°59' E 002°15'712.8
2014-Nov-03 12:32N 37°00' E 002°24'1612.6
2014-Nov-03 11:15N 37°02' E 002°44'1112.7
2014-Nov-03 10:24N 37°04' E 002°58'1112.8
2014-Nov-03 09:31N 37°05' E 003°12'1412.8
2014-Nov-03 08:28N 37°08' E 003°29'1512.3
2014-Nov-03 07:16N 37°10' E 003°47'47512.9
2014-Nov-01 18:18N 36°39' E 013°40'1213.3
2014-Nov-01 17:25N 36°36' E 013°54'1113.2
2014-Nov-01 16:33N 36°32' E 014°07'1413.8
2014-Nov-01 15:33N 36°28' E 014°23'  

Dump ship's entire track history